createdAt,value
2018-09-17T00:00:37.658Z,0.00
2018-09-17T00:01:37.654Z,0.00
2018-09-17T00:02:37.638Z,0.00
2018-09-17T00:03:37.633Z,0.00
2018-09-17T00:04:37.680Z,0.00
2018-09-17T00:05:37.610Z,0.00
2018-09-17T00:06:37.600Z,0.00
2018-09-17T00:07:37.582Z,0.00
2018-09-17T00:08:37.608Z,0.00
2018-09-17T00:09:37.564Z,0.00
2018-09-17T00:10:37.614Z,0.00
2018-09-17T00:11:37.540Z,0.00
2018-09-17T00:12:37.530Z,0.00
2018-09-17T00:13:37.513Z,0.00
2018-09-17T00:14:37.506Z,0.00
2018-09-17T00:15:37.532Z,0.00
2018-09-17T00:16:37.488Z,0.00
2018-09-17T00:17:37.473Z,0.00
2018-09-17T00:18:37.473Z,0.00
2018-09-17T00:19:37.488Z,0.00
2018-09-17T00:20:37.432Z,0.00
2018-09-17T00:21:37.466Z,0.00
2018-09-17T00:22:37.408Z,0.00
2018-09-17T00:23:37.402Z,0.00
2018-09-17T00:24:37.384Z,0.00
2018-09-17T00:25:37.386Z,0.00
2018-09-17T00:26:37.408Z,0.00
2018-09-17T00:27:37.353Z,0.00
2018-09-17T00:28:37.341Z,0.00
2018-09-17T00:29:37.385Z,0.00
2018-09-17T00:30:37.313Z,0.00
2018-09-17T00:31:37.304Z,0.00
2018-09-17T00:32:37.295Z,0.00
2018-09-17T00:33:37.291Z,0.00
2018-09-17T00:34:37.315Z,0.00
2018-09-17T00:35:37.261Z,0.00
2018-09-17T00:36:37.275Z,0.00
2018-09-17T00:37:37.231Z,0.00
2018-09-17T00:38:37.229Z,0.00
2018-09-17T00:39:37.253Z,0.00
2018-09-17T00:40:37.207Z,0.00
2018-09-17T00:41:37.197Z,0.00
2018-09-17T00:42:37.189Z,0.00
2018-09-17T00:43:37.173Z,0.00
2018-09-17T00:44:37.217Z,0.00
2018-09-17T00:45:37.163Z,0.00
2018-09-17T00:46:37.135Z,0.00
2018-09-17T00:47:37.127Z,0.00
2018-09-17T00:48:37.117Z,0.00
2018-09-17T00:49:37.153Z,0.00
2018-09-17T00:50:37.094Z,0.00
2018-09-17T00:51:37.075Z,0.00
2018-09-17T00:52:37.073Z,0.00
2018-09-17T00:53:37.059Z,0.00
2018-09-17T00:54:37.089Z,0.00
2018-09-17T00:55:37.071Z,0.00
2018-09-17T00:56:37.032Z,0.00
2018-09-17T00:57:37.016Z,0.00
2018-09-17T00:58:37.007Z,0.00
2018-09-17T00:59:37.001Z,0.00
2018-09-17T01:00:37.034Z,0.00
2018-09-17T01:01:36.977Z,0.00
2018-09-17T01:02:36.972Z,0.00
2018-09-17T01:03:36.954Z,0.00
2018-09-17T01:04:36.945Z,0.00
2018-09-17T01:05:36.969Z,0.00
2018-09-17T01:06:36.924Z,0.00
2018-09-17T01:07:36.948Z,0.00
2018-09-17T01:08:36.902Z,0.00
2018-09-17T01:09:36.881Z,0.00
2018-09-17T01:10:36.913Z,0.00
2018-09-17T01:11:36.861Z,0.00
2018-09-17T01:12:36.887Z,0.00
2018-09-17T01:13:36.841Z,0.00
2018-09-17T01:14:36.857Z,0.00
2018-09-17T01:15:36.820Z,0.00
2018-09-17T01:16:36.811Z,0.00
2018-09-17T01:17:36.843Z,0.00
2018-09-17T01:18:36.786Z,0.00
2018-09-17T01:19:36.777Z,0.00
2018-09-17T01:20:36.767Z,0.00
2018-09-17T01:21:36.762Z,0.00
2018-09-17T01:22:36.792Z,0.00
2018-09-17T01:23:36.729Z,0.00
2018-09-17T01:24:36.717Z,0.00
2018-09-17T01:25:36.715Z,0.00
2018-09-17T01:26:36.697Z,0.00
2018-09-17T01:27:36.721Z,0.00
2018-09-17T01:28:36.671Z,0.00
2018-09-17T01:29:36.661Z,0.00
2018-09-17T01:30:36.710Z,0.00
2018-09-17T01:31:36.638Z,0.00
2018-09-17T01:32:36.665Z,0.00
2018-09-17T01:33:36.645Z,0.00
2018-09-17T01:34:36.599Z,0.00
2018-09-17T01:35:36.585Z,0.00
2018-09-17T01:36:36.579Z,0.00
2018-09-17T01:37:36.563Z,0.00
2018-09-17T01:38:36.583Z,0.00
2018-09-17T01:39:36.547Z,0.00
2018-09-17T01:40:36.537Z,0.00
2018-09-17T01:41:36.511Z,0.00
2018-09-17T01:42:36.511Z,0.00
2018-09-17T01:43:36.528Z,0.00
2018-09-17T01:44:36.495Z,0.00
2018-09-17T01:45:36.468Z,0.00
2018-09-17T01:46:36.467Z,0.00
2018-09-17T01:47:36.460Z,0.00
2018-09-17T01:48:36.481Z,0.00
2018-09-17T01:49:36.441Z,0.00
2018-09-17T01:50:36.423Z,0.00
2018-09-17T01:51:36.420Z,0.00
2018-09-17T01:52:36.410Z,0.00
2018-09-17T01:53:36.435Z,0.00
2018-09-17T01:54:36.385Z,0.00
2018-09-17T01:55:36.367Z,0.00
2018-09-17T01:56:36.363Z,0.00
2018-09-17T01:57:36.357Z,0.00
2018-09-17T01:58:36.385Z,0.00
2018-09-17T01:59:36.331Z,0.00
2018-09-17T02:00:36.315Z,0.00
2018-09-17T02:01:36.346Z,0.00
2018-09-17T02:02:36.289Z,0.00
2018-09-17T02:03:36.323Z,0.00
2018-09-17T02:04:36.262Z,0.00
2018-09-17T02:05:36.244Z,0.00
2018-09-17T02:06:36.274Z,0.00
2018-09-17T02:07:36.226Z,0.00
2018-09-17T02:08:36.218Z,0.00
2018-09-17T02:09:36.241Z,0.00
2018-09-17T02:10:36.190Z,0.00
2018-09-17T02:11:36.180Z,0.00
2018-09-17T02:12:36.176Z,0.00
2018-09-17T02:13:36.156Z,0.00
2018-09-17T02:14:36.189Z,0.00
2018-09-17T02:15:36.137Z,0.00
2018-09-17T02:16:36.143Z,0.00
2018-09-17T02:17:36.118Z,0.00
2018-09-17T02:18:36.121Z,0.00
2018-09-17T02:19:36.141Z,0.00
2018-09-17T02:20:36.084Z,0.00
2018-09-17T02:21:36.076Z,0.00
2018-09-17T02:22:36.063Z,0.00
2018-09-17T02:23:36.051Z,0.00
2018-09-17T02:24:36.109Z,0.00
2018-09-17T02:25:36.031Z,0.00
2018-09-17T02:26:36.019Z,0.00
2018-09-17T02:27:35.999Z,0.00
2018-09-17T02:28:35.990Z,0.00
2018-09-17T02:29:36.023Z,0.00
2018-09-17T02:30:35.967Z,0.00
2018-09-17T02:31:35.993Z,0.00
2018-09-17T02:32:35.945Z,0.00
2018-09-17T02:33:35.938Z,0.00
2018-09-17T02:34:35.926Z,0.00
2018-09-17T02:35:35.963Z,0.00
2018-09-17T02:36:35.949Z,0.00
2018-09-17T02:37:35.897Z,0.00
2018-09-17T02:38:35.891Z,0.00
2018-09-17T02:39:35.891Z,0.00
2018-09-17T02:40:35.901Z,0.00
2018-09-17T02:41:35.867Z,0.00
2018-09-17T02:42:35.839Z,0.00
2018-09-17T02:43:35.839Z,0.00
2018-09-17T02:44:35.824Z,0.00
2018-09-17T02:45:35.843Z,0.00
2018-09-17T02:46:35.805Z,0.00
2018-09-17T02:47:35.822Z,0.00
2018-09-17T02:48:35.783Z,0.00
2018-09-17T02:49:35.763Z,0.00
2018-09-17T02:50:35.761Z,0.00
2018-09-17T02:51:35.749Z,0.00
2018-09-17T02:52:35.767Z,0.00
2018-09-17T02:53:35.805Z,0.00
2018-09-17T02:54:35.713Z,0.00
2018-09-17T02:55:35.704Z,0.00
2018-09-17T02:56:35.723Z,0.00
2018-09-17T02:57:35.682Z,0.00
2018-09-17T02:58:35.672Z,0.00
2018-09-17T02:59:35.681Z,0.00
2018-09-17T03:00:35.647Z,0.00
2018-09-17T03:01:35.675Z,0.00
2018-09-17T03:02:35.639Z,0.00
2018-09-17T03:03:35.612Z,0.00
2018-09-17T03:04:35.633Z,0.00
2018-09-17T03:05:35.587Z,0.00
2018-09-17T03:06:35.579Z,0.00
2018-09-17T03:07:35.597Z,0.00
2018-09-17T03:08:35.542Z,0.00
2018-09-17T03:09:35.553Z,0.00
2018-09-17T03:10:35.524Z,0.00
2018-09-17T03:11:35.518Z,0.00
2018-09-17T03:12:35.537Z,0.00
2018-09-17T03:13:35.488Z,0.00
2018-09-17T03:14:35.483Z,0.00
2018-09-17T03:15:35.477Z,0.00
2018-09-17T03:16:35.456Z,0.00
2018-09-17T03:17:35.483Z,0.00
2018-09-17T03:18:35.435Z,0.00
2018-09-17T03:19:35.456Z,0.00
2018-09-17T03:20:35.412Z,0.00
2018-09-17T03:21:35.407Z,0.00
2018-09-17T03:22:35.383Z,0.00
2018-09-17T03:23:35.383Z,0.00
2018-09-17T03:24:35.467Z,0.00
2018-09-17T03:25:35.353Z,0.00
2018-09-17T03:26:35.348Z,0.00
2018-09-17T03:27:35.341Z,0.00
2018-09-17T03:28:35.324Z,0.00
2018-09-17T03:29:35.358Z,0.00
2018-09-17T03:30:35.320Z,0.00
2018-09-17T03:31:35.295Z,0.00
2018-09-17T03:32:35.284Z,0.00
2018-09-17T03:33:35.264Z,0.00
2018-09-17T03:34:35.299Z,0.00
2018-09-17T03:35:35.259Z,0.00
2018-09-17T03:36:35.240Z,0.00
2018-09-17T03:37:35.223Z,0.00
2018-09-17T03:38:35.219Z,0.00
2018-09-17T03:39:35.242Z,0.00
2018-09-17T03:40:35.199Z,0.00
2018-09-17T03:41:35.192Z,0.00
2018-09-17T03:42:35.175Z,0.00
2018-09-17T03:43:35.165Z,0.00
2018-09-17T03:44:35.192Z,0.00
2018-09-17T03:45:35.137Z,0.00
2018-09-17T03:46:35.227Z,0.00
2018-09-17T03:47:35.113Z,0.00
2018-09-17T03:48:35.108Z,0.00
2018-09-17T03:49:35.129Z,0.00
2018-09-17T03:50:35.083Z,0.00
2018-09-17T03:51:35.104Z,0.00
2018-09-17T03:52:35.069Z,0.00
2018-09-17T03:53:35.055Z,0.00
2018-09-17T03:54:35.039Z,0.00
2018-09-17T03:55:35.041Z,0.00
2018-09-17T03:56:35.052Z,0.00
2018-09-17T03:57:35.005Z,0.00
2018-09-17T03:58:34.997Z,0.00
2018-09-17T03:59:34.993Z,0.00
2018-09-17T04:00:34.971Z,0.00
2018-09-17T04:01:35.007Z,0.00
2018-09-17T04:02:34.948Z,0.00
2018-09-17T04:03:34.947Z,0.00
2018-09-17T04:04:34.929Z,0.00
2018-09-17T04:05:34.913Z,0.00
2018-09-17T04:06:34.944Z,0.00
2018-09-17T04:07:34.903Z,0.00
2018-09-17T04:08:34.885Z,0.00
2018-09-17T04:09:34.871Z,0.00
2018-09-17T04:10:34.867Z,0.00
2018-09-17T04:11:34.871Z,0.00
2018-09-17T04:12:34.828Z,0.00
2018-09-17T04:13:34.818Z,0.00
2018-09-17T04:14:34.805Z,0.00
2018-09-17T04:15:34.799Z,0.00
2018-09-17T04:16:34.819Z,0.00
2018-09-17T04:17:34.774Z,0.00
2018-09-17T04:18:34.775Z,0.00
2018-09-17T04:19:34.748Z,0.00
2018-09-17T04:20:34.740Z,0.00
2018-09-17T04:21:34.764Z,0.00
2018-09-17T04:22:34.758Z,0.00
2018-09-17T04:23:34.720Z,0.00
2018-09-17T04:24:34.708Z,0.00
2018-09-17T04:25:34.690Z,0.00
2018-09-17T04:26:34.670Z,0.00
2018-09-17T04:27:34.728Z,0.00
2018-09-17T04:28:34.682Z,0.00
2018-09-17T04:29:34.651Z,0.00
2018-09-17T04:30:34.642Z,0.00
2018-09-17T04:31:34.652Z,0.00
2018-09-17T04:32:34.655Z,0.00
2018-09-17T04:33:34.599Z,0.00
2018-09-17T04:34:34.582Z,0.00
2018-09-17T04:35:34.575Z,0.00
2018-09-17T04:36:34.566Z,0.00
2018-09-17T04:37:34.598Z,0.00
2018-09-17T04:38:34.545Z,0.00
2018-09-17T04:39:34.538Z,0.00
2018-09-17T04:40:34.532Z,0.00
2018-09-17T04:41:34.512Z,0.00
2018-09-17T04:42:34.540Z,0.00
2018-09-17T04:43:34.494Z,0.00
2018-09-17T04:44:34.475Z,5.62
2018-09-17T04:45:34.475Z,5.62
2018-09-17T04:46:34.461Z,5.62
2018-09-17T04:47:34.499Z,5.62
2018-09-17T04:48:34.443Z,5.62
2018-09-17T04:49:34.429Z,5.62
2018-09-17T04:50:34.420Z,5.62
2018-09-17T04:51:34.396Z,5.62
2018-09-17T04:52:34.428Z,11.25
2018-09-17T04:53:34.391Z,11.25
2018-09-17T04:54:34.412Z,11.25
2018-09-17T04:55:34.358Z,11.25
2018-09-17T04:56:34.349Z,16.88
2018-09-17T04:57:34.384Z,16.88
2018-09-17T04:58:34.332Z,16.88
2018-09-17T04:59:34.315Z,16.88
2018-09-17T05:00:34.307Z,22.50
2018-09-17T05:01:34.289Z,22.50
2018-09-17T05:02:34.322Z,28.12
2018-09-17T05:03:34.271Z,28.12
2018-09-17T05:04:34.269Z,28.12
2018-09-17T05:05:34.250Z,33.75
2018-09-17T05:06:34.235Z,33.75
2018-09-17T05:07:34.259Z,39.38
2018-09-17T05:08:34.216Z,39.38
2018-09-17T05:09:34.239Z,39.38
2018-09-17T05:10:34.197Z,45.00
2018-09-17T05:11:34.180Z,45.00
2018-09-17T05:12:34.223Z,50.62
2018-09-17T05:13:34.215Z,50.62
2018-09-17T05:14:34.150Z,56.25
2018-09-17T05:15:34.138Z,56.25
2018-09-17T05:16:34.112Z,61.88
2018-09-17T05:17:34.185Z,67.50
2018-09-17T05:18:34.088Z,67.50
2018-09-17T05:19:34.120Z,73.12
2018-09-17T05:20:34.097Z,73.12
2018-09-17T05:21:34.077Z,78.75
2018-09-17T05:22:34.050Z,78.75
2018-09-17T05:23:34.032Z,84.38
2018-09-17T05:24:34.068Z,84.38
2018-09-17T05:25:34.031Z,90.00
2018-09-17T05:26:34.031Z,95.62
2018-09-17T05:27:34.038Z,95.62
2018-09-17T05:28:33.980Z,101.25
2018-09-17T05:29:33.969Z,101.25
2018-09-17T05:30:33.960Z,106.88
2018-09-17T05:31:33.946Z,112.50
2018-09-17T05:32:33.976Z,118.12
2018-09-17T05:33:33.923Z,123.75
2018-09-17T05:34:33.924Z,129.38
2018-09-17T05:35:33.947Z,135.00
2018-09-17T05:36:33.891Z,135.00
2018-09-17T05:37:33.881Z,140.62
2018-09-17T05:38:33.875Z,146.25
2018-09-17T05:39:33.865Z,163.12
2018-09-17T05:40:33.893Z,196.88
2018-09-17T05:41:33.834Z,236.25
2018-09-17T05:42:33.825Z,247.50
2018-09-17T05:43:33.846Z,236.25
2018-09-17T05:44:33.891Z,196.88
2018-09-17T05:45:33.789Z,180.00
2018-09-17T05:46:33.845Z,174.38
2018-09-17T05:47:33.777Z,168.75
2018-09-17T05:48:33.797Z,174.38
2018-09-17T05:49:33.755Z,174.38
2018-09-17T05:50:33.748Z,180.00
2018-09-17T05:51:33.767Z,180.00
2018-09-17T05:52:33.720Z,174.38
2018-09-17T05:53:33.747Z,168.75
2018-09-17T05:54:33.715Z,168.75
2018-09-17T05:55:33.691Z,168.75
2018-09-17T05:56:33.716Z,168.75
2018-09-17T05:57:33.671Z,174.38
2018-09-17T05:58:33.692Z,174.38
2018-09-17T05:59:33.663Z,180.00
2018-09-17T06:00:33.629Z,180.00
2018-09-17T06:01:33.630Z,180.00
2018-09-17T06:02:33.642Z,180.00
2018-09-17T06:03:33.625Z,180.00
2018-09-17T06:04:33.577Z,180.00
2018-09-17T06:05:33.619Z,180.00
2018-09-17T06:06:33.555Z,180.00
2018-09-17T06:07:33.559Z,185.62
2018-09-17T06:08:33.572Z,185.62
2018-09-17T06:09:33.552Z,191.25
2018-09-17T06:10:33.507Z,196.88
2018-09-17T06:11:33.499Z,196.88
2018-09-17T06:12:33.546Z,202.50
2018-09-17T06:13:33.503Z,202.50
2018-09-17T06:14:33.479Z,202.50
2018-09-17T06:15:33.451Z,196.88
2018-09-17T06:16:33.478Z,196.88
2018-09-17T06:17:33.587Z,191.25
2018-09-17T06:18:33.429Z,191.25
2018-09-17T06:19:33.453Z,191.25
2018-09-17T06:20:33.403Z,191.25
2018-09-17T06:21:33.395Z,196.88
2018-09-17T06:22:33.385Z,196.88
2018-09-17T06:23:33.405Z,202.50
2018-09-17T06:24:33.360Z,208.12
2018-09-17T06:25:33.351Z,208.12
2018-09-17T06:26:33.419Z,208.12
2018-09-17T06:27:33.330Z,213.75
2018-09-17T06:28:33.368Z,213.75
2018-09-17T06:29:33.311Z,225.00
2018-09-17T06:30:33.307Z,230.62
2018-09-17T06:31:33.286Z,241.88
2018-09-17T06:32:33.271Z,241.88
2018-09-17T06:33:33.315Z,241.88
2018-09-17T06:34:33.245Z,247.50
2018-09-17T06:35:33.243Z,253.12
2018-09-17T06:36:33.233Z,264.38
2018-09-17T06:37:33.220Z,270.00
2018-09-17T06:38:33.257Z,275.62
2018-09-17T06:39:33.193Z,281.25
2018-09-17T06:40:33.178Z,281.25
2018-09-17T06:41:33.605Z,281.25
2018-09-17T06:42:33.156Z,281.25
2018-09-17T06:43:33.210Z,292.50
2018-09-17T06:44:33.145Z,292.50
2018-09-17T06:45:33.161Z,292.50
2018-09-17T06:46:33.127Z,309.38
2018-09-17T06:47:33.119Z,298.12
2018-09-17T06:48:33.132Z,298.12
2018-09-17T06:49:33.078Z,303.75
2018-09-17T06:50:33.109Z,292.50
2018-09-17T06:51:33.156Z,298.12
2018-09-17T06:52:33.045Z,303.75
2018-09-17T06:53:33.081Z,303.75
2018-09-17T06:54:33.067Z,309.38
2018-09-17T06:55:33.040Z,309.38
2018-09-17T06:56:33.031Z,309.38
2018-09-17T06:57:32.992Z,303.75
2018-09-17T06:58:32.987Z,303.75
2018-09-17T06:59:32.961Z,309.38
2018-09-17T07:00:32.951Z,309.38
2018-09-17T07:01:32.991Z,315.00
2018-09-17T07:02:32.928Z,315.00
2018-09-17T07:03:32.924Z,315.00
2018-09-17T07:04:33.340Z,315.00
2018-09-17T07:05:32.896Z,315.00
2018-09-17T07:06:32.908Z,315.00
2018-09-17T07:07:32.872Z,315.00
2018-09-17T07:08:32.869Z,320.62
2018-09-17T07:09:32.854Z,315.00
2018-09-17T07:10:32.842Z,320.62
2018-09-17T07:11:32.865Z,320.62
2018-09-17T07:12:32.812Z,331.88
2018-09-17T07:13:32.798Z,343.12
2018-09-17T07:14:32.796Z,337.50
2018-09-17T07:15:32.789Z,326.25
2018-09-17T07:16:32.828Z,320.62
2018-09-17T07:17:32.808Z,326.25
2018-09-17T07:18:32.758Z,326.25
2018-09-17T07:19:32.750Z,337.50
2018-09-17T07:20:32.729Z,337.50
2018-09-17T07:21:32.732Z,348.75
2018-09-17T07:22:32.748Z,348.75
2018-09-17T07:23:32.709Z,354.38
2018-09-17T07:24:32.708Z,360.00
2018-09-17T07:25:32.721Z,371.25
2018-09-17T07:26:32.727Z,371.25
2018-09-17T07:27:32.713Z,388.12
2018-09-17T07:28:32.701Z,399.38
2018-09-17T07:29:32.637Z,421.88
2018-09-17T07:30:32.623Z,399.38
2018-09-17T07:31:32.623Z,399.38
2018-09-17T07:32:32.653Z,399.38
2018-09-17T07:33:32.599Z,405.00
2018-09-17T07:34:32.589Z,410.62
2018-09-17T07:35:32.613Z,421.88
2018-09-17T07:36:32.627Z,421.88
2018-09-17T07:37:32.549Z,427.50
2018-09-17T07:38:34.072Z,427.50
2018-09-17T07:39:32.535Z,433.12
2018-09-17T07:40:32.519Z,466.88
2018-09-17T07:41:32.513Z,461.25
2018-09-17T07:42:32.499Z,472.50
2018-09-17T07:43:32.529Z,523.12
2018-09-17T07:44:32.473Z,438.75
2018-09-17T07:45:32.449Z,416.25
2018-09-17T07:46:32.481Z,405.00
2018-09-17T07:47:32.427Z,388.12
2018-09-17T07:48:32.417Z,376.88
2018-09-17T07:49:32.409Z,371.25
2018-09-17T07:50:32.407Z,371.25
2018-09-17T07:51:32.432Z,365.62
2018-09-17T07:52:32.375Z,365.62
2018-09-17T07:53:32.391Z,354.38
2018-09-17T07:54:32.363Z,348.75
2018-09-17T07:55:32.348Z,348.75
2018-09-17T07:56:32.353Z,343.12
2018-09-17T07:57:32.318Z,343.12
2018-09-17T07:58:32.318Z,337.50
2018-09-17T07:59:32.337Z,348.75
2018-09-17T08:00:32.602Z,337.50
2018-09-17T08:01:32.287Z,331.88
2018-09-17T08:02:32.285Z,326.25
2018-09-17T08:03:32.242Z,331.88
2018-09-17T08:04:32.228Z,348.75
2018-09-17T08:05:32.232Z,354.38
2018-09-17T08:06:32.206Z,382.50
2018-09-17T08:07:32.302Z,348.75
2018-09-17T08:08:32.215Z,433.12
2018-09-17T08:09:32.181Z,489.38
2018-09-17T08:10:32.210Z,450.00
2018-09-17T08:11:32.190Z,444.38
2018-09-17T08:12:32.203Z,405.00
2018-09-17T08:13:32.162Z,399.38
2018-09-17T08:14:32.145Z,393.75
2018-09-17T08:15:32.948Z,399.38
2018-09-17T08:16:32.120Z,410.62
2018-09-17T08:17:32.119Z,438.75
2018-09-17T08:18:32.097Z,438.75
2018-09-17T08:19:32.104Z,500.62
2018-09-17T08:20:32.095Z,500.62
2018-09-17T08:21:32.052Z,495.00
2018-09-17T08:22:32.039Z,461.25
2018-09-17T08:23:32.026Z,489.38
2018-09-17T08:24:32.039Z,466.88
2018-09-17T08:25:32.053Z,483.75
2018-09-17T08:26:31.994Z,472.50
2018-09-17T08:27:31.976Z,478.12
2018-09-17T08:28:31.963Z,478.12
2018-09-17T08:29:31.958Z,478.12
2018-09-17T08:30:31.975Z,472.50
2018-09-17T08:31:31.928Z,461.25
2018-09-17T08:32:31.915Z,466.88
2018-09-17T08:33:31.910Z,478.12
2018-09-17T08:34:31.892Z,489.38
2018-09-17T08:35:31.928Z,506.25
2018-09-17T08:36:31.878Z,506.25
2018-09-17T08:37:31.858Z,500.62
2018-09-17T08:38:31.854Z,506.25
2018-09-17T08:39:31.850Z,511.88
2018-09-17T08:40:31.868Z,528.75
2018-09-17T08:41:31.822Z,545.62
2018-09-17T08:42:31.808Z,534.38
2018-09-17T08:43:31.793Z,528.75
2018-09-17T08:44:31.786Z,540.00
2018-09-17T08:45:31.823Z,551.25
2018-09-17T08:46:31.779Z,556.88
2018-09-17T08:47:31.760Z,562.50
2018-09-17T08:48:31.742Z,573.75
2018-09-17T08:49:31.726Z,601.88
2018-09-17T08:50:31.750Z,613.12
2018-09-17T08:51:31.723Z,596.25
2018-09-17T08:52:31.700Z,607.50
2018-09-17T08:53:31.746Z,607.50
2018-09-17T08:54:31.672Z,590.62
2018-09-17T08:55:31.664Z,601.88
2018-09-17T08:56:31.646Z,585.00
2018-09-17T08:57:31.647Z,613.12
2018-09-17T08:58:31.662Z,618.75
2018-09-17T08:59:31.634Z,708.75
2018-09-17T09:00:31.613Z,686.25
2018-09-17T09:01:31.602Z,686.25
2018-09-17T09:02:31.596Z,663.75
2018-09-17T09:03:31.616Z,748.12
2018-09-17T09:04:31.571Z,646.88
2018-09-17T09:05:31.587Z,635.62
2018-09-17T09:06:31.542Z,675.00
2018-09-17T09:07:31.538Z,663.75
2018-09-17T09:08:31.533Z,613.12
2018-09-17T09:09:31.567Z,585.00
2018-09-17T09:10:31.517Z,556.88
2018-09-17T09:11:31.492Z,624.38
2018-09-17T09:12:31.490Z,579.38
2018-09-17T09:13:31.472Z,646.88
2018-09-17T09:14:31.493Z,697.50
2018-09-17T09:15:31.460Z,607.50
2018-09-17T09:16:31.438Z,601.88
2018-09-17T09:17:31.506Z,1591.88
2018-09-17T09:18:31.413Z,624.38
2018-09-17T09:19:31.506Z,1867.50
2018-09-17T09:20:31.398Z,1513.12
2018-09-17T09:21:31.421Z,950.62
2018-09-17T09:22:31.384Z,2593.12
2018-09-17T09:23:31.361Z,1220.62
2018-09-17T09:24:31.499Z,1563.75
2018-09-17T09:25:31.347Z,1873.12
2018-09-17T09:26:31.360Z,1951.88
2018-09-17T09:27:31.327Z,2700.00
2018-09-17T09:28:31.304Z,2666.25
2018-09-17T09:29:31.294Z,2137.50
2018-09-17T09:30:31.443Z,2643.75
2018-09-17T09:31:31.274Z,2632.50
2018-09-17T09:32:31.488Z,2733.75
2018-09-17T09:33:31.302Z,2795.62
2018-09-17T09:34:31.230Z,2823.75
2018-09-17T09:35:31.260Z,2835.00
2018-09-17T09:36:31.203Z,2812.50
2018-09-17T09:37:31.192Z,2784.38
2018-09-17T09:38:31.223Z,2756.25
2018-09-17T09:39:31.184Z,2795.62
2018-09-17T09:40:31.166Z,2857.50
2018-09-17T09:41:31.157Z,2846.25
2018-09-17T09:42:31.143Z,2925.00
2018-09-17T09:43:31.168Z,2806.88
2018-09-17T09:44:31.127Z,2818.12
2018-09-17T09:45:31.112Z,2891.25
2018-09-17T09:46:31.145Z,2902.50
2018-09-17T09:47:31.088Z,2863.12
2018-09-17T09:48:31.076Z,2925.00
2018-09-17T09:49:31.070Z,2913.75
2018-09-17T09:50:31.060Z,2840.62
2018-09-17T09:51:31.109Z,3026.25
2018-09-17T09:52:32.500Z,3020.62
2018-09-17T09:53:31.070Z,2919.38
2018-09-17T09:54:31.042Z,2930.62
2018-09-17T09:55:31.075Z,2677.50
2018-09-17T09:56:31.000Z,2896.88
2018-09-17T09:57:31.082Z,2936.25
2018-09-17T09:58:31.013Z,2835.00
2018-09-17T09:59:31.067Z,2289.38
2018-09-17T10:00:30.972Z,2885.62
2018-09-17T10:01:31.606Z,2986.88
2018-09-17T10:02:31.106Z,3071.25
2018-09-17T10:03:30.938Z,2700.00
2018-09-17T10:04:30.960Z,2998.12
2018-09-17T10:05:30.982Z,2733.75
2018-09-17T10:06:30.938Z,2238.75
2018-09-17T10:07:31.000Z,2497.50
2018-09-17T10:08:30.884Z,2559.38
2018-09-17T10:09:30.874Z,2418.75
2018-09-17T10:10:30.888Z,3009.38
2018-09-17T10:11:30.989Z,2913.75
2018-09-17T10:12:30.946Z,2761.88
2018-09-17T10:13:30.903Z,3031.88
2018-09-17T10:14:30.835Z,3043.12
2018-09-17T10:15:30.840Z,2795.62
2018-09-17T10:16:30.823Z,2666.25
2018-09-17T10:17:32.026Z,2441.25
2018-09-17T10:18:33.430Z,2109.38
2018-09-17T10:19:31.890Z,1845.00
2018-09-17T10:20:30.754Z,1743.75
2018-09-17T10:21:30.727Z,1929.38
2018-09-17T10:22:30.768Z,2205.00
2018-09-17T10:23:30.744Z,2716.88
2018-09-17T10:24:30.697Z,2790.00
2018-09-17T10:25:30.691Z,3110.62
2018-09-17T10:26:30.713Z,2970.00
2018-09-17T10:27:30.667Z,3065.62
2018-09-17T10:28:30.720Z,2941.88
2018-09-17T10:29:30.741Z,3076.88
2018-09-17T10:30:30.642Z,2947.50
2018-09-17T10:31:30.626Z,2638.12
2018-09-17T10:32:30.737Z,2677.50
2018-09-17T10:33:31.252Z,2902.50
2018-09-17T10:34:30.601Z,2835.00
2018-09-17T10:35:31.050Z,2806.88
2018-09-17T10:36:30.598Z,2666.25
2018-09-17T10:37:30.627Z,2570.62
2018-09-17T10:38:30.682Z,2323.12
2018-09-17T10:39:30.585Z,2542.50
2018-09-17T10:40:30.554Z,2452.50
2018-09-17T10:41:30.586Z,2182.50
2018-09-17T10:42:30.934Z,1996.88
2018-09-17T10:43:31.380Z,2154.38
2018-09-17T10:44:30.523Z,2773.12
2018-09-17T10:45:30.553Z,2086.88
2018-09-17T10:46:30.533Z,2300.62
2018-09-17T10:47:30.837Z,2784.38
2018-09-17T10:48:31.210Z,2761.88
2018-09-17T10:49:30.621Z,2908.12
2018-09-17T10:50:30.477Z,2598.75
2018-09-17T10:51:31.414Z,2131.88
2018-09-17T10:52:30.812Z,2351.25
2018-09-17T10:53:30.481Z,2559.38
2018-09-17T10:54:30.387Z,2621.25
2018-09-17T10:55:30.376Z,2694.38
2018-09-17T10:56:30.418Z,2795.62
2018-09-17T10:57:30.363Z,2823.75
2018-09-17T10:58:30.374Z,2745.00
2018-09-17T10:59:30.330Z,2790.00
2018-09-17T11:00:30.744Z,2745.00
2018-09-17T11:01:30.684Z,2638.12
2018-09-17T11:02:30.712Z,2559.38
2018-09-17T11:03:30.704Z,2548.12
2018-09-17T11:04:30.694Z,2587.50
2018-09-17T11:05:30.718Z,2475.00
2018-09-17T11:06:30.306Z,2390.62
2018-09-17T11:07:30.241Z,2401.88
2018-09-17T11:08:30.272Z,2401.88
2018-09-17T11:09:30.226Z,2418.75
2018-09-17T11:10:30.227Z,2340.00
2018-09-17T11:11:30.280Z,2334.38
2018-09-17T11:12:30.192Z,2289.38
2018-09-17T11:13:31.279Z,2272.50
2018-09-17T11:14:30.588Z,2424.38
2018-09-17T11:15:30.162Z,2452.50
2018-09-17T11:16:30.319Z,2508.75
2018-09-17T11:17:30.305Z,2503.12
2018-09-17T11:18:30.135Z,2368.12
2018-09-17T11:19:30.189Z,2328.75
2018-09-17T11:20:30.194Z,2328.75
2018-09-17T11:21:30.141Z,2193.75
2018-09-17T11:22:30.128Z,2143.12
2018-09-17T11:23:30.104Z,2019.38
2018-09-17T11:24:30.122Z,1884.38
2018-09-17T11:25:30.068Z,1794.38
2018-09-17T11:26:30.136Z,1586.25
2018-09-17T11:27:30.044Z,1603.12
2018-09-17T11:28:30.034Z,1665.00
2018-09-17T11:29:30.013Z,1805.62
2018-09-17T11:30:30.024Z,2143.12
2018-09-17T11:31:30.608Z,2205.00
2018-09-17T11:32:30.049Z,1940.62
2018-09-17T11:33:29.979Z,1884.38
2018-09-17T11:34:29.960Z,1816.88
2018-09-17T11:35:30.014Z,1856.25
2018-09-17T11:36:29.992Z,1963.12
2018-09-17T11:37:29.959Z,2047.50
2018-09-17T11:38:29.939Z,2002.50
2018-09-17T11:39:29.932Z,1980.00
2018-09-17T11:40:29.946Z,2053.12
2018-09-17T11:41:30.152Z,2041.88
2018-09-17T11:42:29.916Z,1991.25
2018-09-17T11:43:29.877Z,2188.12
2018-09-17T11:44:29.892Z,2233.12
2018-09-17T11:45:29.916Z,2413.12
2018-09-17T11:46:29.956Z,2486.25
2018-09-17T11:47:29.848Z,2497.50
2018-09-17T11:48:29.840Z,2565.00
2018-09-17T11:49:29.829Z,2441.25
2018-09-17T11:50:29.846Z,2351.25
2018-09-17T11:51:30.562Z,2334.38
2018-09-17T11:52:29.770Z,2306.25
2018-09-17T11:53:29.779Z,2300.62
2018-09-17T11:54:29.766Z,2233.12
2018-09-17T11:55:29.833Z,2165.62
2018-09-17T11:56:29.840Z,2053.12
2018-09-17T11:57:29.798Z,2047.50
2018-09-17T11:58:29.745Z,1951.88
2018-09-17T11:59:29.696Z,2053.12
2018-09-17T12:00:29.764Z,2086.88
2018-09-17T12:01:29.696Z,2058.75
2018-09-17T12:02:29.775Z,1996.88
2018-09-17T12:03:29.695Z,1929.38
2018-09-17T12:04:29.738Z,1906.88
2018-09-17T12:05:29.646Z,1980.00
2018-09-17T12:06:29.653Z,2126.25
2018-09-17T12:07:29.773Z,2227.50
2018-09-17T12:08:29.677Z,2295.00
2018-09-17T12:09:29.600Z,2221.88
2018-09-17T12:10:29.674Z,2295.00
2018-09-17T12:11:29.583Z,2340.00
2018-09-17T12:12:29.662Z,2221.88
2018-09-17T12:13:29.602Z,2165.62
2018-09-17T12:14:29.545Z,2143.12
2018-09-17T12:15:29.592Z,2081.25
2018-09-17T12:16:29.520Z,2058.75
2018-09-17T12:17:29.526Z,2058.75
2018-09-17T12:18:29.624Z,1974.38
2018-09-17T12:19:29.478Z,1996.88
2018-09-17T12:20:29.472Z,1884.38
2018-09-17T12:21:29.521Z,1906.88
2018-09-17T12:22:29.492Z,1783.12
2018-09-17T12:23:29.485Z,1738.12
2018-09-17T12:24:29.480Z,1822.50
2018-09-17T12:25:29.454Z,1890.00
2018-09-17T12:26:29.458Z,1946.25
2018-09-17T12:27:29.445Z,2041.88
2018-09-17T12:28:29.473Z,2041.88
2018-09-17T12:29:30.397Z,2103.75
2018-09-17T12:30:29.372Z,2143.12
2018-09-17T12:31:29.488Z,2188.12
2018-09-17T12:32:29.388Z,2131.88
2018-09-17T12:33:29.403Z,2109.38
2018-09-17T12:34:30.088Z,2176.88
2018-09-17T12:35:29.324Z,2086.88
2018-09-17T12:36:29.308Z,2053.12
2018-09-17T12:37:29.292Z,1929.38
2018-09-17T12:38:29.320Z,1738.12
2018-09-17T12:39:29.606Z,1771.88
2018-09-17T12:40:29.368Z,1726.88
2018-09-17T12:41:29.704Z,1788.75